Time;durP1;ratioP1;P1;durP2;ratioP2;P2;SDS_P1;SDS_P2;PMS_P1;PMS_P2;Temp;Humidity;BMP_temperature;BMP_pressure;BME280_temperature;BME280_humidity;BME280_pressure;Samples;Min_cycle;Max_cycle;Signal;HPM_P1;HPM_P2
2022/10/30 00:00:40;;;;;;;27.10;15.07;;;;;;;20.63;63.99;101584.06;4935504;28;96890;-69
2022/10/30 00:03:09;;;;;;;28.20;15.65;;;;;;;20.68;63.29;101581.94;4932224;28;101025;-69
2022/10/30 00:05:35;;;;;;;36.05;16.23;;;;;;;20.62;63.63;101582.34;4933465;28;98935;-70
2022/10/30 00:08:02;;;;;;;32.85;15.20;;;;;;;20.44;64.28;101583.53;4933267;28;96753;-70
2022/10/30 00:10:28;;;;;;;27.88;14.98;;;;;;;20.53;64.08;101577.59;4936605;28;96718;-71
2022/10/30 00:12:56;;;;;;;28.73;14.98;;;;;;;20.50;63.84;101582.28;4930009;28;97627;-71
2022/10/30 00:15:23;;;;;;;33.10;15.15;;;;;;;20.68;63.54;101575.72;4930913;28;98740;-70
2022/10/30 00:17:49;;;;;;;30.83;15.52;;;;;;;20.51;63.73;101574.13;4931653;28;97069;-71
2022/10/30 00:20:16;;;;;;;29.65;14.75;;;;;;;20.71;63.29;101577.34;4926870;28;98352;-69
2022/10/30 00:22:42;;;;;;;34.75;14.88;;;;;;;20.67;63.32;101574.03;4929402;28;99468;-69
2022/10/30 00:25:09;;;;;;;33.08;15.00;;;;;;;20.74;63.06;101564.59;4926461;28;98893;-69
2022/10/30 00:27:35;;;;;;;26.33;14.93;;;;;;;20.45;63.92;101558.41;4928676;28;96765;-71
2022/10/30 00:30:04;;;;;;;30.85;14.13;;;;;;;20.82;62.69;101553.34;4933141;28;96842;-70
2022/10/30 00:32:30;;;;;;;27.88;14.95;;;;;;;20.82;62.42;101556.88;4930360;28;99765;-70
2022/10/30 00:34:57;;;;;;;29.45;15.10;;;;;;;20.74;62.79;101559.25;4927176;28;99746;-68
2022/10/30 00:37:23;;;;;;;30.27;14.85;;;;;;;20.54;63.20;101563.22;4928893;28;98811;-68
2022/10/30 00:39:49;;;;;;;23.67;13.82;;;;;;;20.32;64.03;101565.50;4930494;28;97137;-71
2022/10/30 00:42:17;;;;;;;30.27;14.27;;;;;;;20.07;64.19;101560.81;4926240;28;98346;-72
2022/10/30 00:44:48;;;;;;;28.52;13.93;;;;;;;19.94;64.62;101558.97;4927528;28;98884;-70
2022/10/30 00:47:23;;;;;;;27.00;13.73;;;;;;;20.06;64.46;101566.25;4930969;28;97865;-69
2022/10/30 00:49:57;;;;;;;27.25;13.82;;;;;;;20.15;64.00;101563.84;4927468;28;96913;-70
2022/10/30 00:52:28;;;;;;;27.25;15.02;;;;;;;19.87;64.74;101561.16;4927400;28;98967;-69
2022/10/30 00:54:57;;;;;;;27.17;14.40;;;;;;;19.78;65.20;101556.34;4924564;28;99314;-69
2022/10/30 00:57:24;;;;;;;27.52;13.85;;;;;;;19.69;65.33;101562.28;4925631;28;97320;-70
2022/10/30 00:59:51;;;;;;;28.50;15.48;;;;;;;19.87;64.76;101548.63;4925988;28;99296;-70
2022/10/30 01:02:21;;;;;;;29.27;13.57;;;;;;;20.01;64.11;101545.09;4927500;28;100119;-70
2022/10/30 01:04:51;;;;;;;21.00;14.13;;;;;;;20.01;64.53;101534.38;4928283;28;99031;-69
2022/10/30 01:07:17;;;;;;;23.60;14.05;;;;;;;20.16;63.77;101538.75;4930247;28;97167;-69
2022/10/30 01:09:46;;;;;;;26.08;14.43;;;;;;;20.03;64.18;101536.91;4929469;28;97197;-70
2022/10/30 01:12:13;;;;;;;35.80;13.98;;;;;;;20.00;64.34;101537.13;4926230;28;99366;-69
2022/10/30 01:14:44;;;;;;;30.67;14.45;;;;;;;20.09;63.99;101524.00;4927288;28;99285;-70
2022/10/30 01:17:46;;;;;;;29.05;14.85;;;;;;;20.23;63.35;101523.13;4931510;28;96793;-69
2022/10/30 01:20:28;;;;;;;32.28;15.35;;;;;;;20.18;63.58;101520.75;4925099;28;98834;-70
2022/10/30 01:23:04;;;;;;;27.17;15.73;;;;;;;20.19;63.41;101525.16;4924158;28;101803;-69
2022/10/30 01:25:41;;;;;;;26.33;14.93;;;;;;;19.97;64.14;101532.81;4927631;28;99268;-69
2022/10/30 01:28:22;;;;;;;35.08;16.58;;;;;;;19.96;64.22;101525.72;4930954;28;96827;-69
2022/10/30 01:31:03;;;;;;;32.00;16.38;;;;;;;19.83;64.31;101522.94;4931056;28;98672;-69
2022/10/30 01:33:42;;;;;;;31.10;15.98;;;;;;;19.78;64.38;101516.13;4924660;28;99612;-70
2022/10/30 01:36:17;;;;;;;29.63;17.08;;;;;;;19.48;65.52;101522.44;4930427;28;101923;-70
2022/10/30 01:38:50;;;;;;;37.50;16.33;;;;;;;19.58;64.95;101528.06;4932258;28;98559;-71
2022/10/30 01:41:16;;;;;;;25.23;14.95;;;;;;;19.46;65.61;101535.03;4930767;28;98562;-71
2022/10/30 01:43:45;;;;;;;26.50;15.43;;;;;;;19.19;66.14;101525.94;4926874;28;100739;-70
2022/10/30 01:46:29;;;;;;;38.50;17.25;;;;;;;19.38;66.44;101523.88;4931840;28;99291;-70
2022/10/30 01:49:09;;;;;;;31.40;17.27;;;;;;;19.43;66.38;101524.47;4924725;28;96836;-69
2022/10/30 01:51:48;;;;;;;40.22;17.90;;;;;;;19.63;65.42;101511.69;4924835;28;97176;-70
2022/10/30 01:54:23;;;;;;;36.08;17.85;;;;;;;19.48;66.33;101503.66;4927609;28;97888;-71
2022/10/30 01:56:59;;;;;;;33.97;17.80;;;;;;;19.79;64.67;101493.72;4924067;28;98006;-71
2022/10/30 01:59:30;;;;;;;38.50;18.50;;;;;;;19.80;64.89;101490.09;4928967;28;96832;-71
2022/10/30 02:01:57;;;;;;;35.85;17.60;;;;;;;19.73;64.73;101489.63;4927731;28;97992;-69
2022/10/30 02:04:26;;;;;;;32.70;18.73;;;;;;;19.62;64.61;101492.09;4925171;28;101782;-70
2022/10/30 02:06:53;;;;;;;33.70;16.95;;;;;;;19.39;65.14;101496.13;4929100;28;99362;-71
2022/10/30 02:09:19;;;;;;;31.40;16.30;;;;;;;19.07;65.79;101494.50;4932579;28;96767;-70
2022/10/30 02:11:47;;;;;;;34.35;16.05;;;;;;;19.15;66.03;101494.94;4931532;28;96889;-71
2022/10/30 02:14:18;;;;;;;35.03;17.30;;;;;;;19.15;65.98;101496.75;4928483;28;99482;-70
2022/10/30 02:16:48;;;;;;;31.77;17.38;;;;;;;19.21;66.11;101496.38;4930018;28;99651;-71
2022/10/30 02:19:14;;;;;;;39.53;18.27;;;;;;;19.48;65.73;101494.75;4930637;28;96976;-71
2022/10/30 02:21:42;;;;;;;37.97;18.60;;;;;;;19.39;65.74;101500.63;4932024;28;96918;-70
2022/10/30 02:24:09;;;;;;;35.53;18.08;;;;;;;19.30;66.02;101499.34;4931633;28;99385;-71
2022/10/30 02:26:35;;;;;;;40.15;17.33;;;;;;;19.17;66.39;101501.03;4934563;28;100518;-69
2022/10/30 02:29:02;;;;;;;42.45;18.83;;;;;;;19.30;66.01;101502.03;4931590;28;97609;-69
2022/10/30 02:31:28;;;;;;;34.28;17.77;;;;;;;19.33;65.87;101493.81;4933254;28;97108;-69
2022/10/30 02:33:55;;;;;;;32.10;18.00;;;;;;;19.35;65.54;101485.69;4933858;28;99567;-68
2022/10/30 02:36:21;;;;;;;36.40;17.70;;;;;;;19.33;66.10;101480.44;4934008;28;98923;-69
2022/10/30 02:38:49;;;;;;;37.83;18.17;;;;;;;19.28;65.89;101473.63;4933948;28;96799;-69
2022/10/30 02:41:16;;;;;;;34.60;18.58;;;;;;;19.30;65.93;101475.25;4934213;28;96936;-69
2022/10/30 02:43:42;;;;;;;33.28;17.45;;;;;;;19.47;65.32;101477.81;4933753;28;98548;-70
2022/10/30 02:46:08;;;;;;;37.75;18.42;;;;;;;19.30;65.88;101482.41;4933564;28;98773;-68
2022/10/30 02:48:35;;;;;;;36.10;17.13;;;;;;;19.44;65.38;101471.72;4933356;28;97215;-68
2022/10/30 02:51:02;;;;;;;36.15;17.75;;;;;;;19.20;65.82;101476.75;4935429;28;96960;-70
2022/10/30 02:53:29;;;;;;;32.05;17.13;;;;;;;19.33;65.28;101475.06;4933228;28;100177;-71
2022/10/30 02:56:02;;;;;;;36.05;16.52;;;;;;;19.25;65.60;101477.34;4935495;28;98769;-70
2022/10/30 02:58:28;;;;;;;37.08;17.23;;;;;;;19.08;66.34;101473.00;4931539;28;98193;-68
2022/10/30 03:00:55;;;;;;;30.55;16.83;;;;;;;19.32;65.03;101477.84;4936018;28;97467;-71
2022/10/30 03:03:21;;;;;;;30.85;17.48;;;;;;;19.46;64.93;101477.91;4934008;28;101655;-69
2022/10/30 03:05:48;;;;;;;24.27;15.45;;;;;;;19.26;65.50;101484.44;4934986;28;100202;-70
2022/10/30 03:08:14;;;;;;;34.60;16.77;;;;;;;19.35;65.01;101491.94;4933104;28;96864;-69
2022/10/30 03:10:41;;;;;;;35.70;16.48;;;;;;;19.33;65.48;101493.81;4934515;28;96904;-69
2022/10/30 03:13:08;;;;;;;32.78;16.25;;;;;;;19.36;65.02;101498.97;4932509;28;98196;-69
2022/10/30 03:15:35;;;;;;;32.30;15.25;;;;;;;19.42;64.62;101506.69;4929248;28;97607;-69
2022/10/30 03:18:01;;;;;;;35.25;16.67;;;;;;;19.34;64.70;101500.91;4933176;28;96874;-71
2022/10/30 03:20:28;;;;;;;36.67;15.93;;;;;;;19.53;64.29;101497.16;4932715;28;96967;-69
2022/10/30 03:22:55;;;;;;;28.65;14.93;;;;;;;19.40;64.13;101495.19;4933702;28;98539;-69
2022/10/30 03:25:22;;;;;;;25.90;15.43;;;;;;;19.18;65.21;101496.53;4933057;28;98891;-69
2022/10/30 03:27:49;;;;;;;28.85;15.68;;;;;;;19.21;65.28;101485.66;4931483;28;97236;-69
2022/10/30 03:30:17;;;;;;;33.53;15.60;;;;;;;19.31;64.73;101492.19;4933816;28;97005;-70
2022/10/30 03:32:43;;;;;;;32.13;15.60;;;;;;;19.35;63.93;101480.34;4933805;28;99520;-69
2022/10/30 03:35:09;;;;;;;30.70;15.93;;;;;;;19.06;64.72;101482.06;4925772;28;99099;-69
2022/10/30 03:37:36;;;;;;;35.17;16.38;;;;;;;18.99;65.34;101481.56;4934832;28;97175;-68
2022/10/30 03:40:02;;;;;;;26.48;16.38;;;;;;;19.07;65.37;101481.13;4932625;28;97001;-68
2022/10/30 03:42:29;;;;;;;31.88;16.63;;;;;;;18.89;66.00;101466.13;4934650;28;99191;-69
2022/10/30 03:44:55;;;;;;;35.45;16.17;;;;;;;18.87;66.42;101465.34;4933202;28;99066;-71
2022/10/30 03:47:23;;;;;;;25.92;15.48;;;;;;;18.95;66.21;101463.09;4935626;28;96801;-69
2022/10/30 03:49:49;;;;;;;31.52;15.68;;;;;;;19.25;65.17;101455.91;4933005;28;96902;-69
2022/10/30 03:52:16;;;;;;;32.78;15.38;;;;;;;19.30;64.85;101443.09;4933950;28;99523;-70
2022/10/30 03:54:42;;;;;;;28.58;15.00;;;;;;;19.47;63.99;101442.97;4931379;28;101092;-69
2022/10/30 03:57:08;;;;;;;29.20;15.50;;;;;;;19.42;63.77;101442.34;4934076;28;96759;-70
2022/10/30 03:59:35;;;;;;;31.70;15.23;;;;;;;19.57;63.90;101455.78;4933397;28;97927;-69
2022/10/30 04:02:01;;;;;;;32.08;15.98;;;;;;;19.73;63.28;101457.44;4933079;28;98998;-69
2022/10/30 04:04:29;;;;;;;26.33;13.88;;;;;;;19.83;62.67;101457.69;4931498;28;98940;-69
2022/10/30 04:06:55;;;;;;;31.40;15.10;;;;;;;19.80;63.00;101447.19;4932076;28;96899;-70
2022/10/30 04:09:21;;;;;;;26.38;14.48;;;;;;;19.77;62.56;101442.88;4936950;28;97634;-69
2022/10/30 04:11:48;;;;;;;33.25;15.13;;;;;;;19.79;62.94;101466.91;4932295;28;99255;-69
2022/10/30 04:14:14;;;;;;;32.25;14.93;;;;;;;19.61;63.17;101468.06;4931502;28;98851;-69
2022/10/30 04:16:40;;;;;;;23.63;14.05;;;;;;;19.46;63.67;101461.81;4933708;28;97551;-70
2022/10/30 04:19:07;;;;;;;25.30;13.65;;;;;;;19.62;62.91;101469.78;4933343;28;97119;-70
2022/10/30 04:21:35;;;;;;;33.28;13.63;;;;;;;19.60;63.54;101479.72;4932142;28;101487;-70
2022/10/30 04:24:01;;;;;;;25.92;14.75;;;;;;;19.73;62.87;101472.66;4932884;28;98113;-68
2022/10/30 04:26:28;;;;;;;23.25;13.25;;;;;;;19.79;62.88;101475.81;4934244;28;96705;-69
2022/10/30 04:28:54;;;;;;;28.02;13.90;;;;;;;19.95;62.44;101474.88;4931585;28;96863;-69
2022/10/30 04:31:21;;;;;;;29.08;14.27;;;;;;;19.99;62.43;101471.03;4932875;28;99069;-70
2022/10/30 04:33:47;;;;;;;25.60;13.00;;;;;;;19.90;62.57;101491.22;4932534;28;102694;-69
2022/10/30 04:36:16;;;;;;;23.38;13.40;;;;;;;20.02;62.13;101495.00;4933474;28;96874;-69
2022/10/30 04:38:44;;;;;;;29.15;13.60;;;;;;;19.95;62.44;101483.78;4931557;28;96858;-71
2022/10/30 04:41:10;;;;;;;27.65;13.35;;;;;;;20.06;61.89;101489.31;4932856;28;98781;-69
2022/10/30 04:43:37;;;;;;;28.23;14.10;;;;;;;20.06;62.07;101488.47;4932089;28;99152;-68
2022/10/30 04:46:04;;;;;;;36.65;13.40;;;;;;;19.89;62.42;101514.50;4929445;28;96950;-68
2022/10/30 04:48:33;;;;;;;28.67;14.43;;;;;;;19.52;63.62;101492.75;4930701;28;96883;-69
2022/10/30 04:51:00;;;;;;;28.10;14.32;;;;;;;19.45;63.85;101474.31;4933540;28;99248;-69
2022/10/30 04:53:26;;;;;;;24.92;13.95;;;;;;;19.42;63.76;101482.56;4930321;28;99265;-70
2022/10/30 04:55:58;;;;;;;22.67;13.68;;;;;;;19.59;63.64;101486.91;4930669;28;96871;-68
2022/10/30 04:58:27;;;;;;;31.95;14.18;;;;;;;19.47;63.96;101475.13;4931592;28;97901;-69
2022/10/30 05:00:53;;;;;;;31.73;13.25;;;;;;;19.70;63.39;101467.47;4931203;28;98970;-69
2022/10/30 05:03:22;;;;;;;21.65;13.40;;;;;;;19.48;63.91;101465.28;4931482;28;98888;-69
2022/10/30 05:05:56;;;;;;;21.88;12.65;;;;;;;19.60;63.33;101475.25;4928204;28;96804;-70
2022/10/30 05:08:23;;;;;;;27.00;13.90;;;;;;;19.33;64.54;101469.72;4933418;28;97069;-69
2022/10/30 05:10:49;;;;;;;28.27;13.63;;;;;;;19.10;64.91;101479.09;4932120;28;99670;-68
2022/10/30 05:13:17;;;;;;;21.23;12.18;;;;;;;19.09;64.93;101476.53;4928882;28;99170;-68
2022/10/30 05:15:43;;;;;;;29.58;12.50;;;;;;;19.20;64.88;101475.91;4927353;28;97928;-68
2022/10/30 05:18:10;;;;;;;24.45;13.05;;;;;;;19.05;65.04;101469.63;4931078;28;96977;-68
2022/10/30 05:20:36;;;;;;;26.80;13.25;;;;;;;19.02;64.95;101465.34;4931608;28;98239;-69
2022/10/30 05:23:03;;;;;;;27.42;13.45;;;;;;;19.13;64.76;101467.34;4932025;28;99015;-70
2022/10/30 05:25:30;;;;;;;29.05;13.10;;;;;;;19.23;63.94;101447.09;4932691;28;97006;-70
2022/10/30 05:28:00;;;;;;;23.45;12.10;;;;;;;19.36;63.50;101449.91;4933708;28;97734;-70
2022/10/30 05:30:29;;;;;;;26.10;13.38;;;;;;;19.18;63.82;101432.25;4930183;28;98255;-69
2022/10/30 05:32:59;;;;;;;28.58;12.35;;;;;;;19.19;63.20;101424.13;4930164;28;99072;-70
2022/10/30 05:35:25;;;;;;;24.48;12.57;;;;;;;19.22;63.31;101426.63;4931205;28;99119;-69
2022/10/30 05:37:52;;;;;;;27.58;12.38;;;;;;;19.14;63.54;101420.88;4928550;28;97019;-68
2022/10/30 05:40:18;;;;;;;23.80;11.90;;;;;;;19.38;63.02;101423.84;4931794;28;99532;-69
2022/10/30 05:42:45;;;;;;;19.80;11.45;;;;;;;19.35;63.12;101446.38;4932510;28;97956;-69
2022/10/30 05:45:12;;;;;;;27.15;12.43;;;;;;;18.99;63.92;101451.25;4932577;28;96882;-70
2022/10/30 05:47:40;;;;;;;23.17;12.60;;;;;;;19.24;62.99;101459.53;4934379;28;96787;-70
2022/10/30 05:50:08;;;;;;;27.10;11.80;;;;;;;19.27;63.45;101462.03;4930513;28;101871;-71
2022/10/30 05:52:34;;;;;;;25.13;12.07;;;;;;;19.27;62.87;101431.69;4930485;28;99620;-70
2022/10/30 05:55:01;;;;;;;28.08;12.73;;;;;;;19.27;62.69;101397.72;4930909;28;96867;-70
2022/10/30 05:57:28;;;;;;;23.83;12.40;;;;;;;19.37;62.41;101428.34;4934550;28;98232;-69
2022/10/30 05:59:54;;;;;;;33.63;13.60;;;;;;;19.32;62.74;101451.91;4934825;28;97501;-69
2022/10/30 06:02:21;;;;;;;25.92;12.38;;;;;;;19.41;62.20;101416.50;4935296;28;102807;-69
2022/10/30 06:04:49;;;;;;;20.90;11.48;;;;;;;19.39;61.96;101425.59;4937086;28;97015;-69
2022/10/30 06:07:15;;;;;;;32.42;12.13;;;;;;;19.38;62.05;101439.94;4933517;28;96890;-69
2022/10/30 06:09:42;;;;;;;30.75;12.07;;;;;;;19.36;62.31;101431.16;4935225;28;101085;-70
2022/10/30 06:12:08;;;;;;;26.30;12.25;;;;;;;19.32;61.88;101422.44;4934850;28;99558;-69
2022/10/30 06:14:35;;;;;;;26.85;11.40;;;;;;;19.27;62.17;101434.38;4939042;28;96793;-70
2022/10/30 06:17:01;;;;;;;27.17;12.70;;;;;;;19.54;61.30;101431.88;4934770;28;97372;-69
2022/10/30 06:19:28;;;;;;;22.58;10.88;;;;;;;19.68;60.99;101438.09;4934645;28;99281;-69
2022/10/30 06:21:55;;;;;;;33.38;11.40;;;;;;;19.75;60.95;101428.72;4937980;28;99112;-69
2022/10/30 06:24:22;;;;;;;24.88;12.02;;;;;;;19.80;60.83;101431.97;4933151;28;96849;-72
2022/10/30 06:26:49;;;;;;;25.02;11.80;;;;;;;19.95;59.99;101418.53;4930396;28;96845;-70
2022/10/30 06:29:16;;;;;;;26.08;11.38;;;;;;;19.83;60.35;101412.13;4934658;28;99651;-71
2022/10/30 06:31:42;;;;;;;23.95;12.15;;;;;;;19.61;61.25;101409.94;4934302;28;100793;-72
2022/10/30 06:34:09;;;;;;;24.83;11.27;;;;;;;19.68;60.86;101413.09;4933183;28;96805;-72
2022/10/30 06:36:35;;;;;;;22.63;11.15;;;;;;;19.73;60.31;101403.81;4935990;28;98030;-71
2022/10/30 06:39:03;;;;;;;26.33;11.82;;;;;;;19.57;61.00;101412.91;4931740;28;98202;-71
2022/10/30 06:41:29;;;;;;;23.17;11.20;;;;;;;19.85;60.20;101426.28;4932377;28;98833;-71
2022/10/30 06:43:56;;;;;;;26.42;11.48;;;;;;;19.60;60.57;101428.81;4934139;28;96880;-72
2022/10/30 06:46:22;;;;;;;25.17;11.95;;;;;;;19.73;60.04;101425.25;4933782;28;97748;-71
2022/10/30 06:48:49;;;;;;;26.00;11.70;;;;;;;19.81;59.65;101424.78;4934798;28;98971;-72
2022/10/30 06:51:16;;;;;;;28.55;11.48;;;;;;;19.89;59.19;101423.31;4933493;28;99174;-71
2022/10/30 06:53:43;;;;;;;18.88;9.85;;;;;;;19.84;59.37;101429.94;4936739;28;96865;-70
2022/10/30 06:56:10;;;;;;;27.65;11.02;;;;;;;19.71;59.50;101431.66;4935244;28;97031;-69
2022/10/30 06:58:38;;;;;;;20.95;10.52;;;;;;;19.81;59.58;101443.56;4931342;28;98323;-70
2022/10/30 07:01:05;;;;;;;24.58;10.82;;;;;;;19.83;59.58;101446.97;4934995;28;99229;-70
2022/10/30 07:03:32;;;;;;;27.10;11.27;;;;;;;19.84;59.84;101446.88;4935537;28;97073;-72
2022/10/30 07:05:59;;;;;;;24.92;11.10;;;;;;;19.93;59.20;101448.13;4934243;28;96952;-69
2022/10/30 07:08:26;;;;;;;20.45;10.60;;;;;;;19.75;59.63;101454.66;4931832;28;101329;-71
2022/10/30 07:10:52;;;;;;;23.95;10.23;;;;;;;20.07;58.69;101456.19;4934077;28;99453;-71
2022/10/30 07:13:20;;;;;;;24.33;10.40;;;;;;;20.16;58.67;101455.56;4933659;28;97111;-71
2022/10/30 07:15:47;;;;;;;22.17;10.75;;;;;;;20.13;58.29;101460.28;4930956;28;100721;-69
2022/10/30 07:18:14;;;;;;;20.70;11.25;;;;;;;20.08;58.63;101468.63;4933545;28;99357;-70
2022/10/30 07:20:41;;;;;;;23.05;11.23;;;;;;;20.46;57.87;101473.38;4933676;28;100215;-70
2022/10/30 07:23:07;;;;;;;20.67;10.50;;;;;;;20.46;57.90;101468.00;4934603;28;96870;-71
2022/10/30 07:25:33;;;;;;;24.27;9.95;;;;;;;20.56;57.68;101469.13;4938376;28;96828;-70
2022/10/30 07:28:00;;;;;;;22.42;10.30;;;;;;;20.24;58.12;101472.03;4933007;28;99077;-71
2022/10/30 07:30:28;;;;;;;23.92;10.90;;;;;;;20.58;57.78;101477.94;4933719;28;100449;-71
2022/10/30 07:32:59;;;;;;;23.50;10.68;;;;;;;20.26;58.70;101483.56;4930646;28;99920;-69
2022/10/30 07:35:26;;;;;;;20.70;10.75;;;;;;;20.27;58.87;101484.41;4935040;28;96977;-70
2022/10/30 07:37:55;;;;;;;27.23;9.77;;;;;;;20.47;58.05;101484.03;4933103;28;97801;-71
2022/10/30 07:40:22;;;;;;;24.02;11.13;;;;;;;20.60;57.44;101484.09;4932937;28;98842;-71
2022/10/30 07:42:49;;;;;;;23.02;10.50;;;;;;;20.46;57.26;101479.59;4933800;28;97305;-69
2022/10/30 07:45:15;;;;;;;22.55;9.88;;;;;;;20.70;57.15;101477.13;4932126;28;96996;-70
2022/10/30 07:47:44;;;;;;;22.80;9.93;;;;;;;20.68;57.25;101495.16;4931444;28;98133;-70
2022/10/30 07:50:11;;;;;;;21.30;9.75;;;;;;;20.75;56.68;101490.25;4934158;28;98586;-69
2022/10/30 07:52:37;;;;;;;20.30;10.20;;;;;;;20.71;56.57;101489.59;4933620;28;96793;-70
2022/10/30 07:55:05;;;;;;;29.10;9.55;;;;;;;20.73;56.43;101482.31;4932278;28;98856;-70
2022/10/30 07:57:35;;;;;;;28.90;9.45;;;;;;;20.66;56.77;101481.00;4932341;28;101507;-70
2022/10/30 08:00:02;;;;;;;21.88;9.70;;;;;;;20.88;56.37;101483.94;4932755;28;98959;-70
2022/10/30 08:02:28;;;;;;;20.65;9.68;;;;;;;21.17;55.81;101487.41;4933701;28;97893;-70
2022/10/30 08:04:59;;;;;;;21.85;10.20;;;;;;;21.15;55.44;101488.44;4927616;28;100281;-72
2022/10/30 08:07:29;;;;;;;16.55;9.02;;;;;;;21.21;55.32;101478.16;4930165;28;99315;-71
2022/10/30 08:09:55;;;;;;;18.17;9.10;;;;;;;21.11;55.16;101485.09;4929075;28;99909;-69
2022/10/30 08:12:22;;;;;;;25.40;9.90;;;;;;;21.07;55.52;101483.56;4931242;28;96862;-69
2022/10/30 08:14:49;;;;;;;24.35;9.65;;;;;;;21.04;55.38;101491.84;4931985;28;97025;-71
2022/10/30 08:17:15;;;;;;;21.15;9.20;;;;;;;21.11;55.00;101486.94;4929327;28;98911;-70
2022/10/30 08:19:42;;;;;;;24.67;9.93;;;;;;;21.04;55.42;101503.47;4930376;28;98803;-70
2022/10/30 08:22:11;;;;;;;25.60;9.63;;;;;;;21.04;55.50;101489.16;4931987;28;96805;-69
2022/10/30 08:24:37;;;;;;;21.17;9.98;;;;;;;21.26;55.29;101492.16;4928629;28;97018;-69
2022/10/30 08:27:04;;;;;;;20.70;9.82;;;;;;;21.28;54.82;101476.78;4927808;28;99002;-70
2022/10/30 08:29:30;;;;;;;24.83;9.93;;;;;;;21.09;55.25;101493.25;4926131;28;99277;-70
2022/10/30 08:31:57;;;;;;;23.05;9.32;;;;;;;21.38;55.11;101488.63;4928742;28;96851;-70
2022/10/30 08:34:25;;;;;;;27.77;9.75;;;;;;;21.18;55.19;101488.28;4930480;28;98062;-69
2022/10/30 08:36:52;;;;;;;23.13;9.25;;;;;;;21.50;54.25;101496.81;4927866;28;97849;-71
2022/10/30 08:39:20;;;;;;;25.67;9.15;;;;;;;21.63;54.10;101484.22;4931554;28;97720;-70
2022/10/30 08:41:47;;;;;;;21.33;10.88;;;;;;;21.90;53.59;101489.50;4930751;28;97229;-70
2022/10/30 08:44:13;;;;;;;24.65;8.75;;;;;;;22.01;53.02;101486.94;4929522;28;97936;-71
2022/10/30 08:46:40;;;;;;;32.10;9.45;;;;;;;21.72;53.64;101487.16;4930887;28;101982;-71
2022/10/30 08:49:07;;;;;;;18.70;8.20;;;;;;;22.01;53.11;101489.63;4927935;28;99279;-70
2022/10/30 08:51:34;;;;;;;20.08;8.57;;;;;;;21.93;52.87;101487.44;4926805;28;98830;-71
2022/10/30 08:54:00;;;;;;;22.02;8.90;;;;;;;22.16;52.23;101488.53;4926448;28;96977;-71
2022/10/30 08:56:28;;;;;;;15.65;7.50;;;;;;;22.26;51.62;101484.19;4928163;28;99909;-71
2022/10/30 08:58:54;;;;;;;18.08;7.65;;;;;;;22.32;51.53;101489.13;4928731;28;99316;-70
2022/10/30 09:01:21;;;;;;;14.70;7.40;;;;;;;22.61;50.93;101490.53;4927147;28;98187;-73
2022/10/30 09:03:47;;;;;;;14.82;7.80;;;;;;;22.50;50.78;101493.19;4932432;28;96962;-70
2022/10/30 09:06:14;;;;;;;22.77;8.07;;;;;;;22.62;50.83;101481.50;4929212;28;99523;-71
2022/10/30 09:08:40;;;;;;;17.27;7.60;;;;;;;22.80;50.34;101489.19;4927560;28;98987;-72
2022/10/30 09:11:07;;;;;;;20.60;7.82;;;;;;;22.79;50.40;101490.16;4925110;28;97579;-71
2022/10/30 09:13:37;;;;;;;21.42;7.80;;;;;;;22.28;50.85;101484.94;4926873;28;97337;-70
2022/10/30 09:16:04;;;;;;;20.80;7.50;;;;;;;22.25;51.09;101488.72;4918864;28;100275;-72
2022/10/30 09:18:31;;;;;;;20.02;7.63;;;;;;;22.26;50.76;101492.25;4925187;28;98981;-70
2022/10/30 09:20:57;;;;;;;16.67;7.57;;;;;;;22.49;50.87;101485.22;4922931;28;98692;-70
2022/10/30 09:23:24;;;;;;;20.25;6.93;;;;;;;22.47;50.96;101484.44;4931720;28;97553;-70
2022/10/30 09:25:50;;;;;;;20.70;7.63;;;;;;;22.50;50.97;101481.56;4922827;28;98265;-71
2022/10/30 09:28:16;;;;;;;25.92;9.85;;;;;;;22.55;50.33;101474.84;4926174;28;99901;-71
2022/10/30 09:30:44;;;;;;;25.92;8.30;;;;;;;22.92;49.65;101477.50;4920083;28;96897;-72
2022/10/30 09:33:11;;;;;;;18.08;7.47;;;;;;;23.08;49.35;101472.69;4926487;28;99106;-71
2022/10/30 09:35:37;;;;;;;18.77;6.93;;;;;;;23.18;49.33;101462.03;4928357;28;98941;-72
2022/10/30 09:38:04;;;;;;;19.20;7.32;;;;;;;23.14;50.10;101468.66;4924194;28;98954;-70
2022/10/30 09:40:43;;;;;;;18.70;7.15;;;;;;;23.06;49.85;101463.84;4921207;28;97255;-69
2022/10/30 09:43:23;;;;;;;21.40;8.55;;;;;;;23.36;48.39;101472.28;4928313;28;96921;-69
2022/10/30 09:46:05;;;;;;;15.05;6.95;;;;;;;23.66;47.23;101463.66;4925846;28;99869;-73
2022/10/30 09:48:50;;;;;;;14.77;6.50;;;;;;;23.60;46.55;101456.03;4925717;28;97361;-71
2022/10/30 09:51:31;;;;;;;21.83;7.18;;;;;;;23.56;46.30;101454.56;4924061;28;97794;-71
2022/10/30 09:54:10;;;;;;;15.15;6.65;;;;;;;23.68;45.95;101455.44;4928701;28;97148;-70
2022/10/30 09:56:43;;;;;;;15.10;6.13;;;;;;;23.75;46.09;101459.38;4928297;28;98244;-72
2022/10/30 09:59:22;;;;;;;17.67;6.45;;;;;;;23.87;45.85;101469.19;4923614;28;97639;-70
2022/10/30 10:01:58;;;;;;;21.02;7.22;;;;;;;24.02;45.37;101464.41;4924758;28;97252;-72
2022/10/30 10:04:31;;;;;;;20.35;6.65;;;;;;;24.02;45.37;101472.50;4925144;28;97388;-71
2022/10/30 10:07:19;;;;;;;21.50;5.90;;;;;;;23.93;44.00;101481.31;4925705;28;99384;-69
2022/10/30 10:09:50;;;;;;;17.90;6.35;;;;;;;23.86;44.16;101480.94;4924734;28;98880;-70
2022/10/30 10:12:24;;;;;;;18.67;6.65;;;;;;;23.87;43.99;101479.13;4927062;28;97711;-71
2022/10/30 10:14:53;;;;;;;15.77;5.63;;;;;;;24.01;44.18;101476.19;4923819;28;98780;-70
2022/10/30 10:17:38;;;;;;;16.65;5.65;;;;;;;24.03;44.36;101466.09;4925302;28;99624;-72
2022/10/30 10:20:14;;;;;;;16.95;6.57;;;;;;;24.34;43.77;101472.63;4925147;28;100735;-71
2022/10/30 10:22:48;;;;;;;20.92;6.75;;;;;;;24.18;44.09;101471.13;4924296;28;97298;-71
2022/10/30 10:25:16;;;;;;;21.92;6.60;;;;;;;24.45;43.28;101473.44;4927175;28;97069;-72
2022/10/30 10:27:53;;;;;;;19.25;5.72;;;;;;;24.22;43.16;101475.31;4923910;28;98287;-70
2022/10/30 10:30:21;;;;;;;15.00;5.22;;;;;;;24.14;43.80;101480.47;4924085;28;99388;-71
2022/10/30 10:33:08;;;;;;;21.15;5.45;;;;;;;24.37;42.83;101481.31;4924405;28;98082;-70
2022/10/30 10:36:14;;;;;;;20.73;5.35;;;;;;;24.25;43.47;101482.31;4923410;28;98770;-70
2022/10/30 10:39:02;;;;;;;15.90;4.72;;;;;;;24.42;43.25;101478.22;4921127;28;101723;-72
2022/10/30 10:41:47;;;;;;;13.45;4.88;;;;;;;24.36;43.11;101478.72;4925949;28;99022;-72
2022/10/30 10:44:24;;;;;;;19.20;5.28;;;;;;;24.14;43.47;101475.06;4925278;28;99008;-69
2022/10/30 10:47:02;;;;;;;19.83;5.70;;;;;;;24.27;44.02;101472.25;4931259;28;96907;-69
2022/10/30 10:49:47;;;;;;;19.25;6.05;;;;;;;24.14;43.46;101466.09;4931503;28;99379;-69
2022/10/30 10:52:25;;;;;;;14.65;5.60;;;;;;;24.18;43.83;101457.63;4929694;28;101694;-70
2022/10/30 10:54:55;;;;;;;11.93;4.78;;;;;;;24.06;43.59;101455.91;4926882;28;97888;-71
2022/10/30 10:57:27;;;;;;;15.00;5.05;;;;;;;24.14;42.83;101458.88;4931135;28;97305;-70
2022/10/30 10:59:58;;;;;;;11.80;4.65;;;;;;;24.30;42.99;101458.50;4931668;28;98944;-69
2022/10/30 11:02:34;;;;;;;17.13;6.35;;;;;;;24.33;42.90;101452.00;4929571;28;99114;-70
2022/10/30 11:05:07;;;;;;;18.15;5.43;;;;;;;24.13;42.89;101449.03;4931338;28;96784;-71
2022/10/30 11:07:44;;;;;;;14.05;4.70;;;;;;;24.31;42.86;101454.81;4928360;28;97292;-70
2022/10/30 11:10:13;;;;;;;12.35;4.43;;;;;;;24.41;42.40;101444.13;4927030;28;99463;-71
2022/10/30 11:12:40;;;;;;;14.32;5.15;;;;;;;24.49;42.74;101447.88;4929219;28;101612;-70
2022/10/30 11:15:22;;;;;;;15.10;5.22;;;;;;;24.55;42.85;101449.22;4931218;28;97094;-70
2022/10/30 11:17:56;;;;;;;15.38;4.93;;;;;;;24.73;41.90;101438.75;4925908;28;96917;-71
2022/10/30 11:20:30;;;;;;;17.38;5.10;;;;;;;24.62;42.21;101439.63;4927983;28;100409;-70